EGGD/BRS METAR and TAF weather

Enter ICAO airport designator
Station Type Date Time Source
EGGD METAR 2019/10/18 05:50 UTC NOAA

EGGD 180550Z 23010KT 9999 -SHRA FEW039TCU SCT042 08/07 Q0998


Station Type Date Time Source
EGGD Decoded METAR 2019/10/18 05:50 UTC NOAA

Bristol / Lulsgate , United Kingdom (EGGD) 51-23N 002-43W
Oct 18, 2019 - 01:50 AM EDT / 2019.10.18 0550 UTC
Wind: from the SW (230 degrees) at 12 MPH (10 KT):0
Visibility: greater than 7 mile(s):0
Sky conditions: partly cloudy
Weather: light rain showers; Towering cumulus clouds observed
Temperature: 46 F (8 C)
Dew Point: 44 F (7 C)
Relative Humidity: 93%
Pressure (altimeter): 29.47 in. Hg (0998 hPa)
ob: EGGD 180550Z 23010KT 9999 -SHRA FEW039TCU SCT042 08/07 Q0998
cycle: 6

Station Type Date Time Source
EGGD TAF 2019/10/18 06:12 UTC NOAA

TAF EGGD 180507Z 1806/1906 22010KT 9999 SCT025
TEMPO 1806/1906 7000 SHRA PROB40
TEMPO 1806/1903 3000 +SHRA BKN010 BKN020CB
TEMPO 1809/1822 22018G28KT

Example: see airport list